Time;durP1;ratioP1;P1;durP2;ratioP2;P2;SDS_P1;SDS_P2;PMS_P1;PMS_P2;Temp;Humidity;BMP_temperature;BMP_pressure;BME280_temperature;BME280_humidity;BME280_pressure;Samples;Min_cycle;Max_cycle;Signal;HPM_P1;HPM_P2
2023/01/04 00:00:07;;;;;;;;;;;8.70;99.90;;;;;;8381190;28;19924;-72
2023/01/04 00:04:09;;;;;;;;;;;8.70;99.90;;;;;;8372881;28;20390;-72
2023/01/04 00:08:10;;;;;;;;;;;8.70;99.90;;;;;;8388482;28;19932;-72
2023/01/04 00:12:12;;;;;;;;;;;8.70;99.90;;;;;;8376431;28;19948;-72
2023/01/04 00:16:15;;;;;;;;;;;8.70;99.90;;;;;;8383173;28;19975;-72
2023/01/04 00:20:17;;;;;;;;;;;8.60;99.90;;;;;;8375365;28;19991;-70
2023/01/04 00:34:28;;;;;;;;;;;8.60;99.90;;;;;;8303311;28;19948;-70
2023/01/04 00:38:30;;;;;;;;;;;8.60;99.90;;;;;;8328166;28;19932;-70
2023/01/04 00:42:32;;;;;;;;;;;8.60;99.90;;;;;;8314231;28;19925;-69
2023/01/04 00:46:34;;;;;;;;;;;8.60;99.90;;;;;;8316271;28;19980;-69
2023/01/04 00:50:36;;;;;;;;;;;8.70;99.90;;;;;;8328209;28;19947;-70
2023/01/04 00:54:37;;;;;;;;;;;8.70;99.90;;;;;;8312042;28;19925;-69
2023/01/04 00:58:39;;;;;;;;;;;8.70;99.90;;;;;;8316948;28;20400;-69
2023/01/04 01:02:41;;;;;;;;;;;8.70;99.90;;;;;;8297453;28;21558;-69
2023/01/04 01:06:42;;;;;;;;;;;8.70;99.90;;;;;;8311674;28;20395;-69
2023/01/04 01:10:44;;;;;;;;;;;8.70;99.90;;;;;;8309544;28;20678;-69
2023/01/04 01:14:46;;;;;;;;;;;8.70;99.90;;;;;;8314169;28;19981;-70
2023/01/04 01:18:47;;;;;;;;;;;8.80;99.90;;;;;;8305410;28;19925;-70
2023/01/04 01:22:49;;;;;;;;;;;8.80;99.90;;;;;;8306152;28;19991;-69
2023/01/04 01:26:51;;;;;;;;;;;8.80;99.90;;;;;;8306772;28;19933;-70
2023/01/04 01:30:52;;;;;;;;;;;8.90;99.90;;;;;;8325342;28;20288;-70
2023/01/04 01:34:54;;;;;;;;;;;8.90;99.90;;;;;;8374262;28;20365;-70
2023/01/04 01:38:56;;;;;;;;;;;8.90;99.90;;;;;;8378315;28;19931;-70
2023/01/04 01:57:42;;;;;;;;;;;9.10;99.90;;;;;;8375331;28;19940;-70
2023/01/04 02:01:44;;;;;;;;;;;9.10;99.90;;;;;;8366263;28;20044;-70
2023/01/04 02:05:48;;;;;;;;;;;9.20;99.90;;;;;;8378053;28;20257;-69
2023/01/04 02:09:50;;;;;;;;;;;9.20;99.90;;;;;;8377817;28;19960;-70
2023/01/04 02:18:16;;;;;;;;;;;9.30;99.90;;;;;;8366889;28;19928;-70
2023/01/04 02:22:47;;;;;;;;;;;9.30;99.90;;;;;;8368874;28;20367;-70
2023/01/04 02:27:08;;;;;;;;;;;9.40;99.90;;;;;;8350186;28;19931;-70
2023/01/04 02:31:13;;;;;;;;;;;9.40;99.90;;;;;;8374089;28;20370;-70
2023/01/04 02:35:15;;;;;;;;;;;9.50;99.90;;;;;;8371155;28;20378;-69
2023/01/04 02:39:24;;;;;;;;;;;9.50;99.90;;;;;;8377736;28;19925;-70
2023/01/04 02:52:10;;;;;;;;;;;9.60;99.90;;;;;;8360953;28;19933;-70
2023/01/04 02:56:14;;;;;;;;;;;9.60;99.90;;;;;;8368444;28;19936;-69
2023/01/04 03:06:13;;;;;;;;;;;9.70;99.90;;;;;;8356442;28;19925;-70
2023/01/04 03:09:25;;;;;;;;;;;9.70;99.90;;;;;;8356152;28;19932;-70
2023/01/04 03:13:28;;;;;;;;;;;9.80;99.90;;;;;;8363451;28;20020;-70
2023/01/04 03:17:32;;;;;;;;;;;9.80;99.90;;;;;;8368888;28;20384;-70
2023/01/04 03:21:35;;;;;;;;;;;9.90;99.90;;;;;;8358823;28;19976;-70
2023/01/04 03:52:02;;;;;;;;;;;10.20;99.90;;;;;;8382453;28;20368;-70
2023/01/04 03:56:05;;;;;;;;;;;10.30;99.90;;;;;;8380192;28;19928;-70
2023/01/04 04:00:14;;;;;;;;;;;10.30;99.90;;;;;;8372118;28;19925;-70
2023/01/04 04:08:36;;;;;;;;;;;10.40;99.90;;;;;;8379662;28;19925;-70
2023/01/04 04:12:38;;;;;;;;;;;10.50;99.90;;;;;;8377949;28;19940;-70
2023/01/04 04:16:40;;;;;;;;;;;10.60;99.90;;;;;;8377642;28;19925;-70
2023/01/04 04:20:41;;;;;;;;;;;10.60;99.90;;;;;;8380897;28;20434;-70
2023/01/04 04:24:43;;;;;;;;;;;10.70;99.90;;;;;;8388129;28;19931;-70
2023/01/04 04:28:45;;;;;;;;;;;10.70;99.90;;;;;;8386771;28;19924;-70
2023/01/04 04:32:46;;;;;;;;;;;10.80;99.90;;;;;;8374555;28;19928;-70
2023/01/04 04:36:48;;;;;;;;;;;10.80;99.90;;;;;;8378757;28;20276;-70
2023/01/04 04:45:10;;;;;;;;;;;10.90;99.90;;;;;;8375762;28;19925;-70
2023/01/04 04:49:15;;;;;;;;;;;11.00;99.90;;;;;;8384553;28;19955;-70
2023/01/04 04:53:17;;;;;;;;;;;11.00;99.90;;;;;;8377992;28;19933;-70
2023/01/04 04:57:18;;;;;;;;;;;11.00;99.90;;;;;;8391450;28;19924;-70
2023/01/04 05:01:20;;;;;;;;;;;11.00;99.90;;;;;;8382134;28;19963;-69
2023/01/04 05:05:22;;;;;;;;;;;11.00;99.90;;;;;;8373799;28;19928;-70
2023/01/04 05:09:23;;;;;;;;;;;10.90;99.90;;;;;;8384585;28;19947;-70
2023/01/04 05:13:25;;;;;;;;;;;10.90;99.90;;;;;;8363757;28;19932;-70
2023/01/04 05:17:26;;;;;;;;;;;10.90;99.90;;;;;;8358934;28;19931;-70
2023/01/04 05:21:28;;;;;;;;;;;10.90;99.90;;;;;;8376011;28;19928;-70
2023/01/04 05:25:30;;;;;;;;;;;10.90;99.90;;;;;;8379776;28;19982;-70
2023/01/04 05:33:53;;;;;;;;;;;10.80;99.90;;;;;;8366551;28;19960;-70
2023/01/04 05:37:55;;;;;;;;;;;10.80;99.90;;;;;;8376246;28;19976;-70
2023/01/04 05:46:17;;;;;;;;;;;10.90;99.90;;;;;;8377580;28;19952;-70
2023/01/04 05:50:20;;;;;;;;;;;10.90;99.90;;;;;;8386388;28;20300;-69
2023/01/04 05:54:21;;;;;;;;;;;10.90;99.90;;;;;;8381165;28;20113;-68
2023/01/04 05:58:23;;;;;;;;;;;10.90;99.90;;;;;;8365020;28;20015;-69
2023/01/04 06:02:26;;;;;;;;;;;10.90;99.90;;;;;;8372189;28;19925;-69
2023/01/04 06:06:28;;;;;;;;;;;10.90;99.90;;;;;;8384011;28;19931;-69
2023/01/04 06:10:29;;;;;;;;;;;10.90;99.90;;;;;;8386632;28;19924;-68
2023/01/04 06:14:31;;;;;;;;;;;10.90;99.90;;;;;;8378397;28;20423;-68
2023/01/04 06:18:33;;;;;;;;;;;10.90;99.90;;;;;;8370705;28;19924;-69
2023/01/04 06:22:35;;;;;;;;;;;10.90;99.90;;;;;;8368041;28;20576;-68
2023/01/04 06:26:36;;;;;;;;;;;11.00;99.90;;;;;;8374456;28;20375;-68
2023/01/04 06:30:38;;;;;;;;;;;11.00;99.90;;;;;;8379121;28;19935;-68
2023/01/04 06:34:40;;;;;;;;;;;11.00;99.90;;;;;;8386422;28;19924;-69
2023/01/04 06:38:41;;;;;;;;;;;11.00;99.90;;;;;;8389764;28;19929;-69
2023/01/04 06:42:46;;;;;;;;;;;11.10;99.90;;;;;;8381791;28;19925;-69
2023/01/04 06:46:47;;;;;;;;;;;11.10;99.90;;;;;;8364360;28;19924;-69
2023/01/04 06:50:49;;;;;;;;;;;11.10;99.90;;;;;;8391200;28;19931;-69
2023/01/04 06:54:51;;;;;;;;;;;11.10;99.90;;;;;;8393990;28;20378;-69
2023/01/04 06:58:52;;;;;;;;;;;11.10;99.90;;;;;;8388275;28;20020;-69
2023/01/04 07:02:54;;;;;;;;;;;11.10;99.90;;;;;;8379429;28;19928;-68
2023/01/04 07:07:15;;;;;;;;;;;11.10;99.90;;;;;;8393102;28;20330;-69
2023/01/04 07:11:17;;;;;;;;;;;11.10;99.90;;;;;;8385288;28;19955;-68
2023/01/04 07:15:19;;;;;;;;;;;11.10;99.90;;;;;;8380271;28;19928;-69
2023/01/04 07:19:40;;;;;;;;;;;11.10;99.90;;;;;;8391048;28;19939;-69
2023/01/04 07:23:43;;;;;;;;;;;11.10;99.90;;;;;;8388510;28;19943;-69
2023/01/04 07:27:48;;;;;;;;;;;11.10;99.90;;;;;;8396144;28;20303;-69
2023/01/04 07:31:51;;;;;;;;;;;11.10;99.90;;;;;;8392054;28;19925;-69
2023/01/04 07:35:52;;;;;;;;;;;11.20;99.90;;;;;;8382424;28;19924;-69
2023/01/04 07:39:54;;;;;;;;;;;11.20;99.90;;;;;;8386076;28;19948;-69
2023/01/04 07:43:56;;;;;;;;;;;11.20;99.90;;;;;;8382006;28;20364;-69
2023/01/04 07:47:57;;;;;;;;;;;11.20;99.90;;;;;;8394440;28;19975;-69
2023/01/04 07:51:59;;;;;;;;;;;11.20;99.90;;;;;;8394175;28;20299;-69
2023/01/04 07:56:01;;;;;;;;;;;11.20;99.90;;;;;;8389956;28;19982;-69
2023/01/04 08:00:03;;;;;;;;;;;11.20;99.90;;;;;;8389094;28;20091;-69
2023/01/04 08:04:05;;;;;;;;;;;11.20;99.90;;;;;;8375944;28;19924;-69
2023/01/04 08:08:07;;;;;;;;;;;11.20;99.90;;;;;;8388091;28;19925;-69
2023/01/04 08:12:08;;;;;;;;;;;11.20;99.90;;;;;;8389211;28;19928;-70
2023/01/04 08:16:18;;;;;;;;;;;11.20;99.90;;;;;;8384219;28;19928;-69
2023/01/04 08:20:20;;;;;;;;;;;11.20;99.90;;;;;;8400853;28;19978;-69
2023/01/04 08:24:21;;;;;;;;;;;11.20;99.90;;;;;;8389608;28;19971;-69
2023/01/04 08:28:23;;;;;;;;;;;11.20;99.90;;;;;;8382842;28;19924;-69
2023/01/04 08:32:25;;;;;;;;;;;11.30;99.90;;;;;;8382433;28;19932;-69
2023/01/04 08:36:28;;;;;;;;;;;11.30;99.90;;;;;;8394880;28;19924;-69
2023/01/04 08:40:29;;;;;;;;;;;11.30;99.90;;;;;;8376982;28;20306;-69
2023/01/04 08:44:51;;;;;;;;;;;11.30;99.90;;;;;;8388025;28;20022;-69
2023/01/04 08:48:59;;;;;;;;;;;11.30;99.90;;;;;;8384455;28;19971;-69
2023/01/04 08:53:00;;;;;;;;;;;11.30;99.90;;;;;;8382412;28;20052;-69
2023/01/04 08:57:02;;;;;;;;;;;11.30;99.90;;;;;;8384954;28;19943;-70
2023/01/04 09:01:05;;;;;;;;;;;11.30;99.90;;;;;;8376536;28;19928;-70
2023/01/04 09:05:07;;;;;;;;;;;11.30;99.90;;;;;;8389519;28;19946;-70
2023/01/04 09:09:09;;;;;;;;;;;11.30;99.90;;;;;;8391674;28;19931;-69
2023/01/04 09:13:11;;;;;;;;;;;11.30;99.90;;;;;;8385064;28;19925;-69
2023/01/04 09:17:12;;;;;;;;;;;11.40;99.90;;;;;;8385730;28;19935;-70
2023/01/04 09:21:15;;;;;;;;;;;11.40;99.90;;;;;;8377410;28;19976;-70
2023/01/04 09:25:17;;;;;;;;;;;11.40;99.90;;;;;;8378056;28;20360;-69
2023/01/04 09:29:18;;;;;;;;;;;11.40;99.90;;;;;;8384880;28;19924;-70
2023/01/04 09:33:20;;;;;;;;;;;11.50;99.90;;;;;;8358855;28;19932;-70
2023/01/04 09:37:32;;;;;;;;;;;11.50;99.90;;;;;;8386773;28;19972;-70
2023/01/04 09:41:36;;;;;;;;;;;11.50;99.90;;;;;;8387044;28;20375;-70
2023/01/04 09:45:38;;;;;;;;;;;11.50;99.90;;;;;;8378001;28;19924;-69
2023/01/04 09:49:42;;;;;;;;;;;11.50;99.90;;;;;;8390574;28;19924;-70
2023/01/04 09:53:44;;;;;;;;;;;11.50;99.90;;;;;;8379902;28;19928;-70
2023/01/04 09:57:51;;;;;;;;;;;11.50;99.90;;;;;;8379888;28;19935;-70
2023/01/04 10:01:57;;;;;;;;;;;11.50;99.90;;;;;;8377456;28;21258;-70
2023/01/04 10:06:00;;;;;;;;;;;11.50;99.90;;;;;;8366440;28;19931;-70
2023/01/04 10:10:03;;;;;;;;;;;11.60;99.90;;;;;;8386665;28;20015;-70
2023/01/04 10:14:23;;;;;;;;;;;11.60;99.90;;;;;;8374636;28;19924;-70
2023/01/04 10:18:40;;;;;;;;;;;11.60;99.90;;;;;;8389848;28;19935;-70
2023/01/04 10:23:12;;;;;;;;;;;11.60;99.90;;;;;;8385535;28;19983;-70
2023/01/04 10:27:17;;;;;;;;;;;11.60;99.90;;;;;;8385574;28;20293;-70
2023/01/04 10:47:19;;;;;;;;;;;11.60;99.90;;;;;;8395545;28;19919;-69
2023/01/04 10:51:30;;;;;;;;;;;11.60;99.90;;;;;;8395271;28;19973;-70
2023/01/04 10:55:45;;;;;;;;;;;11.70;99.90;;;;;;8389149;28;19959;-69
2023/01/04 11:00:07;;;;;;;;;;;11.70;99.90;;;;;;8381238;28;19982;-69
2023/01/04 11:04:20;;;;;;;;;;;11.70;99.90;;;;;;8394317;28;20364;-70
2023/01/04 11:08:21;;;;;;;;;;;11.70;99.90;;;;;;8394666;28;20284;-70
2023/01/04 11:12:23;;;;;;;;;;;11.70;99.90;;;;;;8389522;28;19928;-70
2023/01/04 11:16:28;;;;;;;;;;;11.70;99.90;;;;;;8392671;28;19970;-70
2023/01/04 11:20:30;;;;;;;;;;;11.70;99.90;;;;;;8374886;28;19933;-70
2023/01/04 11:24:39;;;;;;;;;;;11.70;99.90;;;;;;8396533;28;19968;-70
2023/01/04 11:28:57;;;;;;;;;;;11.70;99.90;;;;;;8391024;28;19931;-70
2023/01/04 11:33:04;;;;;;;;;;;11.70;99.90;;;;;;8392270;28;19931;-70
2023/01/04 11:37:21;;;;;;;;;;;11.70;99.90;;;;;;8388621;28;19925;-70
2023/01/04 11:41:23;;;;;;;;;;;11.70;99.90;;;;;;8392589;28;19928;-69
2023/01/04 11:45:26;;;;;;;;;;;11.80;99.90;;;;;;8387659;28;20370;-69
2023/01/04 11:49:32;;;;;;;;;;;11.80;99.90;;;;;;8391450;28;19925;-69
2023/01/04 11:53:35;;;;;;;;;;;11.90;99.90;;;;;;8384698;28;19963;-69
2023/01/04 11:57:37;;;;;;;;;;;11.90;99.90;;;;;;8372188;28;20363;-69
2023/01/04 12:01:45;;;;;;;;;;;11.90;99.90;;;;;;8385925;28;19925;-69
2023/01/04 12:05:47;;;;;;;;;;;11.90;99.90;;;;;;8388921;28;20514;-69
2023/01/04 12:09:49;;;;;;;;;;;11.90;99.90;;;;;;8369956;28;19967;-69
2023/01/04 12:13:50;;;;;;;;;;;12.00;99.90;;;;;;8378800;28;19957;-69
2023/01/04 12:17:55;;;;;;;;;;;12.00;99.90;;;;;;8382628;28;19924;-69
2023/01/04 12:21:58;;;;;;;;;;;12.00;99.90;;;;;;8375527;28;20388;-69
2023/01/04 12:26:00;;;;;;;;;;;12.00;99.90;;;;;;8390725;28;19924;-69
2023/01/04 12:30:06;;;;;;;;;;;12.10;99.90;;;;;;8378805;28;19935;-69
2023/01/04 12:34:15;;;;;;;;;;;12.20;99.90;;;;;;8370349;28;19925;-69
2023/01/04 12:38:36;;;;;;;;;;;12.20;99.90;;;;;;8387500;28;19934;-69
2023/01/04 12:42:51;;;;;;;;;;;12.30;99.90;;;;;;8386769;28;19934;-69
2023/01/04 12:51:16;;;;;;;;;;;12.30;99.90;;;;;;8386721;28;19954;-69
2023/01/04 12:55:31;;;;;;;;;;;12.30;99.90;;;;;;8404182;28;19924;-69
2023/01/04 12:59:35;;;;;;;;;;;12.30;99.90;;;;;;8391912;28;19928;-69
2023/01/04 13:03:45;;;;;;;;;;;12.40;99.90;;;;;;8378057;28;19931;-69
2023/01/04 13:07:49;;;;;;;;;;;12.40;99.90;;;;;;8392538;28;20280;-69
2023/01/04 13:11:50;;;;;;;;;;;12.50;99.90;;;;;;8389374;28;20019;-68
2023/01/04 13:15:58;;;;;;;;;;;12.50;99.90;;;;;;8377291;28;19929;-69
2023/01/04 13:20:05;;;;;;;;;;;12.40;99.90;;;;;;8389331;28;20456;-69
2023/01/04 13:24:18;;;;;;;;;;;12.50;99.90;;;;;;8381240;28;20372;-69
2023/01/04 13:28:19;;;;;;;;;;;12.50;99.90;;;;;;8379341;28;19947;-68
2023/01/04 13:32:22;;;;;;;;;;;12.50;99.90;;;;;;8383790;28;20279;-69
2023/01/04 13:36:24;;;;;;;;;;;12.50;99.90;;;;;;8382242;28;19925;-68
2023/01/04 13:40:32;;;;;;;;;;;12.50;99.90;;;;;;8374018;28;19925;-68
2023/01/04 13:44:47;;;;;;;;;;;12.50;99.90;;;;;;8404319;28;19934;-69
2023/01/04 13:49:09;;;;;;;;;;;12.50;99.90;;;;;;8390122;28;19971;-68
2023/01/04 13:53:19;;;;;;;;;;;12.50;99.90;;;;;;8372601;28;19931;-69
2023/01/04 13:57:20;;;;;;;;;;;12.40;99.90;;;;;;8389222;28;19924;-69
2023/01/04 14:01:22;;;;;;;;;;;12.40;99.90;;;;;;8383297;28;19932;-68
2023/01/04 14:05:24;;;;;;;;;;;12.50;99.90;;;;;;8380298;28;19928;-69
2023/01/04 14:09:31;;;;;;;;;;;12.50;99.90;;;;;;8387436;28;19931;-68
2023/01/04 14:13:33;;;;;;;;;;;12.50;99.90;;;;;;8383135;28;19924;-68
2023/01/04 14:17:48;;;;;;;;;;;12.50;99.90;;;;;;8391336;28;19934;-68
2023/01/04 14:21:51;;;;;;;;;;;12.50;99.90;;;;;;8391435;28;19979;-68
2023/01/04 14:25:56;;;;;;;;;;;12.50;99.90;;;;;;8385136;28;20326;-69
2023/01/04 14:35:05;;;;;;;;;;;12.50;99.90;;;;;;8375834;28;19923;-68
2023/01/04 14:44:12;;;;;;;;;;;12.50;99.90;;;;;;8379899;28;19970;-69
2023/01/04 14:48:13;;;;;;;;;;;12.50;99.90;;;;;;8381366;28;20000;-68
2023/01/04 14:52:22;;;;;;;;;;;12.50;99.90;;;;;;8362578;28;19932;-68
2023/01/04 14:56:23;;;;;;;;;;;12.50;99.90;;;;;;8388654;28;20046;-68
2023/01/04 15:00:25;;;;;;;;;;;12.50;99.90;;;;;;8386988;28;19929;-68
2023/01/04 15:04:27;;;;;;;;;;;12.50;99.90;;;;;;8389489;28;20283;-68
2023/01/04 15:08:29;;;;;;;;;;;12.50;99.90;;;;;;8380946;28;19944;-68
2023/01/04 15:12:30;;;;;;;;;;;12.40;99.90;;;;;;8385082;28;19924;-68
2023/01/04 15:16:32;;;;;;;;;;;12.40;99.90;;;;;;8391859;28;19930;-68
2023/01/04 15:20:34;;;;;;;;;;;12.40;99.90;;;;;;8386657;28;19925;-68
2023/01/04 15:24:35;;;;;;;;;;;12.40;99.90;;;;;;8384954;28;19929;-68
2023/01/04 15:28:37;;;;;;;;;;;12.30;99.90;;;;;;8387602;28;19925;-68
2023/01/04 15:32:39;;;;;;;;;;;12.30;99.90;;;;;;8381968;28;20032;-68
2023/01/04 15:36:41;;;;;;;;;;;12.30;99.90;;;;;;8387948;28;20373;-68
2023/01/04 15:40:43;;;;;;;;;;;12.30;99.90;;;;;;8380793;28;20265;-68
2023/01/04 15:44:44;;;;;;;;;;;12.20;99.90;;;;;;8395148;28;19928;-69
2023/01/04 15:48:46;;;;;;;;;;;12.20;99.90;;;;;;8391527;28;20463;-68
2023/01/04 15:52:47;;;;;;;;;;;12.20;99.90;;;;;;8388827;28;19924;-68
2023/01/04 15:56:49;;;;;;;;;;;12.20;99.90;;;;;;8394444;28;19933;-68
2023/01/04 16:00:51;;;;;;;;;;;12.20;99.90;;;;;;8392728;28;19926;-68
2023/01/04 16:05:00;;;;;;;;;;;12.20;99.90;;;;;;8377731;28;19924;-68
2023/01/04 16:09:02;;;;;;;;;;;12.20;99.90;;;;;;8391626;28;19947;-68
2023/01/04 16:13:04;;;;;;;;;;;12.10;99.90;;;;;;8380805;28;19931;-68
2023/01/04 16:17:05;;;;;;;;;;;12.10;99.90;;;;;;8389373;28;20010;-68
2023/01/04 16:21:08;;;;;;;;;;;12.10;99.90;;;;;;8383994;28;19932;-68
2023/01/04 16:25:09;;;;;;;;;;;12.10;99.90;;;;;;8376371;28;19924;-68
2023/01/04 16:29:12;;;;;;;;;;;12.10;99.90;;;;;;8383176;28;19985;-68
2023/01/04 16:33:14;;;;;;;;;;;12.10;99.90;;;;;;8384273;28;19929;-68
2023/01/04 16:37:16;;;;;;;;;;;12.00;99.90;;;;;;8399217;28;19924;-68
2023/01/04 16:41:21;;;;;;;;;;;12.10;99.90;;;;;;8394667;28;20336;-68
2023/01/04 16:45:23;;;;;;;;;;;12.10;99.90;;;;;;8385362;28;19974;-68
2023/01/04 16:49:25;;;;;;;;;;;12.10;99.90;;;;;;8383251;28;19939;-68
2023/01/04 16:53:26;;;;;;;;;;;12.00;99.90;;;;;;8392132;28;19925;-68
2023/01/04 16:57:28;;;;;;;;;;;12.00;99.90;;;;;;8381556;28;19929;-68
2023/01/04 17:01:31;;;;;;;;;;;12.00;99.90;;;;;;8363305;28;19998;-68
2023/01/04 17:05:37;;;;;;;;;;;11.90;99.90;;;;;;8380699;28;20131;-68
2023/01/04 17:14:43;;;;;;;;;;;11.90;99.90;;;;;;8386897;28;19958;-68
2023/01/04 17:18:44;;;;;;;;;;;11.90;99.90;;;;;;8383958;28;20002;-69
2023/01/04 17:22:46;;;;;;;;;;;11.90;99.90;;;;;;8386998;28;20287;-68
2023/01/04 17:26:48;;;;;;;;;;;11.90;99.90;;;;;;8386989;28;20425;-69
2023/01/04 17:30:49;;;;;;;;;;;12.00;99.90;;;;;;8376786;28;19925;-68
2023/01/04 17:34:51;;;;;;;;;;;12.00;99.90;;;;;;8394907;28;20002;-69
2023/01/04 17:38:53;;;;;;;;;;;12.00;99.90;;;;;;8383904;28;19924;-68
2023/01/04 17:42:54;;;;;;;;;;;12.00;99.90;;;;;;8384835;28;19932;-68
2023/01/04 17:46:56;;;;;;;;;;;11.90;99.90;;;;;;8385271;28;20403;-69
2023/01/04 17:51:05;;;;;;;;;;;11.70;99.90;;;;;;8375369;28;19925;-69
2023/01/04 17:55:06;;;;;;;;;;;11.60;99.90;;;;;;8382996;28;19924;-69
2023/01/04 17:59:08;;;;;;;;;;;11.60;99.90;;;;;;8378311;28;20283;-69
2023/01/04 18:03:10;;;;;;;;;;;11.60;99.90;;;;;;8383644;28;19971;-69
2023/01/04 18:07:12;;;;;;;;;;;11.60;99.90;;;;;;8382688;28;19985;-69
2023/01/04 18:11:15;;;;;;;;;;;11.60;99.90;;;;;;8373093;28;19925;-69
2023/01/04 18:15:17;;;;;;;;;;;11.70;99.90;;;;;;8386746;28;19968;-69
2023/01/04 18:19:18;;;;;;;;;;;11.70;99.90;;;;;;8370104;28;19928;-68
2023/01/04 18:23:21;;;;;;;;;;;11.80;99.90;;;;;;8396229;28;19983;-68
2023/01/04 18:27:26;;;;;;;;;;;11.80;99.90;;;;;;8363262;28;20959;-69
2023/01/04 18:31:28;;;;;;;;;;;11.80;99.90;;;;;;8361152;28;19974;-68
2023/01/04 18:35:29;;;;;;;;;;;11.80;99.90;;;;;;8378632;28;19928;-68
2023/01/04 18:39:31;;;;;;;;;;;11.80;99.90;;;;;;8382720;28;19932;-68
2023/01/04 18:43:34;;;;;;;;;;;11.80;99.90;;;;;;8384245;28;20353;-68
2023/01/04 18:47:36;;;;;;;;;;;11.80;99.90;;;;;;8386039;28;19924;-68
2023/01/04 18:51:37;;;;;;;;;;;11.70;99.90;;;;;;8397244;28;20384;-69
2023/01/04 18:55:39;;;;;;;;;;;11.70;99.90;;;;;;8395143;28;19972;-69
2023/01/04 18:59:41;;;;;;;;;;;11.70;99.90;;;;;;8381306;28;20288;-68
2023/01/04 19:03:44;;;;;;;;;;;11.80;99.90;;;;;;8386726;28;19931;-69
2023/01/04 19:07:46;;;;;;;;;;;11.80;99.90;;;;;;8383909;28;20272;-68
2023/01/04 19:11:47;;;;;;;;;;;11.90;99.90;;;;;;8387019;28;20379;-69
2023/01/04 19:15:49;;;;;;;;;;;11.90;99.90;;;;;;8395540;28;19932;-68
2023/01/04 19:19:51;;;;;;;;;;;11.90;99.90;;;;;;8391741;28;19947;-68
2023/01/04 19:23:54;;;;;;;;;;;11.90;99.90;;;;;;8390016;28;19924;-68
2023/01/04 19:27:56;;;;;;;;;;;12.00;99.90;;;;;;8380634;28;19924;-68
2023/01/04 19:31:58;;;;;;;;;;;11.90;99.90;;;;;;8381471;28;20309;-69
2023/01/04 19:36:04;;;;;;;;;;;12.00;99.90;;;;;;8381323;28;19968;-68
2023/01/04 19:40:05;;;;;;;;;;;12.00;99.90;;;;;;8387804;28;19929;-68
2023/01/04 19:44:09;;;;;;;;;;;12.00;99.90;;;;;;8383951;28;20381;-68
2023/01/04 19:48:13;;;;;;;;;;;11.90;99.90;;;;;;8395818;28;20376;-68
2023/01/04 19:52:15;;;;;;;;;;;11.90;99.90;;;;;;8391246;28;20292;-68
2023/01/04 19:56:17;;;;;;;;;;;12.00;99.90;;;;;;8391814;28;19929;-68
2023/01/04 20:00:18;;;;;;;;;;;12.00;99.90;;;;;;8385887;28;19932;-68
2023/01/04 20:04:20;;;;;;;;;;;12.00;99.90;;;;;;8391747;28;19925;-69
2023/01/04 20:08:22;;;;;;;;;;;12.00;99.90;;;;;;8376448;28;20265;-68
2023/01/04 20:12:24;;;;;;;;;;;11.90;99.90;;;;;;8383799;28;19968;-68
2023/01/04 20:16:25;;;;;;;;;;;11.90;99.90;;;;;;8388553;28;19925;-68
2023/01/04 20:20:33;;;;;;;;;;;11.90;99.90;;;;;;8392125;28;20299;-69
2023/01/04 20:24:35;;;;;;;;;;;11.90;99.90;;;;;;8395510;28;19932;-68
2023/01/04 20:28:37;;;;;;;;;;;11.90;99.90;;;;;;8392635;28;19929;-69
2023/01/04 20:32:39;;;;;;;;;;;11.90;99.90;;;;;;8393633;28;19929;-68
2023/01/04 20:36:40;;;;;;;;;;;11.90;99.90;;;;;;8401502;28;20019;-68
2023/01/04 20:40:42;;;;;;;;;;;11.90;99.90;;;;;;8386593;28;19929;-68
2023/01/04 20:44:44;;;;;;;;;;;11.90;99.90;;;;;;8393579;28;19940;-68
2023/01/04 20:48:46;;;;;;;;;;;11.90;99.90;;;;;;8380771;28;19929;-68
2023/01/04 20:52:47;;;;;;;;;;;12.00;99.90;;;;;;8403078;28;19924;-69
2023/01/04 20:56:49;;;;;;;;;;;12.00;99.90;;;;;;8374148;28;19931;-68
2023/01/04 21:00:50;;;;;;;;;;;12.00;99.90;;;;;;8377131;28;19935;-68
2023/01/04 21:04:52;;;;;;;;;;;12.00;99.90;;;;;;8376576;28;19931;-68
2023/01/04 21:08:54;;;;;;;;;;;12.00;99.90;;;;;;8379331;28;19975;-69
2023/01/04 21:12:55;;;;;;;;;;;12.00;99.90;;;;;;8385742;28;20295;-68
2023/01/04 21:16:57;;;;;;;;;;;12.00;99.90;;;;;;8390032;28;19984;-69
2023/01/04 21:21:05;;;;;;;;;;;12.00;99.90;;;;;;8381361;28;19925;-68
2023/01/04 21:25:07;;;;;;;;;;;12.10;99.90;;;;;;8378329;28;19924;-69
2023/01/04 21:29:09;;;;;;;;;;;12.10;99.90;;;;;;8372934;28;19935;-69
2023/01/04 21:33:11;;;;;;;;;;;12.00;99.90;;;;;;8368610;28;19975;-68
2023/01/04 21:37:13;;;;;;;;;;;12.00;99.90;;;;;;8382218;28;19925;-68
2023/01/04 21:41:15;;;;;;;;;;;12.00;99.90;;;;;;8377453;28;19928;-69
2023/01/04 21:45:16;;;;;;;;;;;12.00;99.90;;;;;;8380567;28;19924;-69
2023/01/04 21:49:18;;;;;;;;;;;12.00;99.90;;;;;;8376843;28;19975;-69
2023/01/04 21:53:20;;;;;;;;;;;12.10;99.90;;;;;;8370182;28;19983;-69
2023/01/04 21:57:21;;;;;;;;;;;12.00;99.90;;;;;;8374075;28;19967;-68
2023/01/04 22:01:24;;;;;;;;;;;12.00;99.90;;;;;;8384018;28;20729;-68
2023/01/04 22:05:31;;;;;;;;;;;12.00;99.90;;;;;;8379846;28;19924;-68
2023/01/04 22:09:33;;;;;;;;;;;11.90;99.90;;;;;;8381775;28;20403;-68
2023/01/04 22:13:34;;;;;;;;;;;11.90;99.90;;;;;;8375336;28;19951;-69
2023/01/04 22:17:36;;;;;;;;;;;11.80;99.90;;;;;;8401852;28;19929;-68
2023/01/04 22:21:38;;;;;;;;;;;11.70;99.90;;;;;;8380259;28;19956;-68
2023/01/04 22:25:39;;;;;;;;;;;11.70;99.90;;;;;;8378721;28;19968;-69
2023/01/04 22:29:41;;;;;;;;;;;11.60;99.90;;;;;;8384906;28;19978;-69
2023/01/04 22:44:15;;;;;;;;;;;11.50;99.90;;;;;;8362979;28;20006;-68
2023/01/04 22:48:17;;;;;;;;;;;11.50;99.90;;;;;;8364085;28;20000;-69
2023/01/04 22:52:18;;;;;;;;;;;11.50;99.90;;;;;;8381017;28;19931;-68
2023/01/04 22:56:20;;;;;;;;;;;11.50;99.90;;;;;;8378327;28;19991;-68
2023/01/04 23:00:23;;;;;;;;;;;11.50;99.90;;;;;;8359633;28;19924;-68
2023/01/04 23:04:25;;;;;;;;;;;11.50;99.90;;;;;;8378935;28;20379;-68
2023/01/04 23:08:26;;;;;;;;;;;11.50;99.90;;;;;;8375848;28;20046;-69
2023/01/04 23:12:28;;;;;;;;;;;11.50;99.90;;;;;;8381186;28;20245;-68
2023/01/04 23:16:30;;;;;;;;;;;11.50;99.90;;;;;;8377833;28;20024;-68
2023/01/04 23:20:33;;;;;;;;;;;11.50;99.90;;;;;;8379353;28;19924;-69
2023/01/04 23:24:36;;;;;;;;;;;11.50;99.90;;;;;;8378721;28;19968;-69
2023/01/04 23:28:38;;;;;;;;;;;11.50;99.90;;;;;;8385686;28;19951;-69
2023/01/04 23:32:40;;;;;;;;;;;11.50;99.90;;;;;;8381063;28;19929;-69
2023/01/04 23:36:42;;;;;;;;;;;11.50;99.90;;;;;;8365811;28;20566;-69
2023/01/04 23:40:47;;;;;;;;;;;11.50;99.90;;;;;;8384974;28;19925;-68
2023/01/04 23:44:49;;;;;;;;;;;11.50;99.90;;;;;;8382407;28;19925;-69
2023/01/04 23:48:50;;;;;;;;;;;11.40;99.90;;;;;;8367816;28;19956;-69
2023/01/04 23:52:52;;;;;;;;;;;11.40;99.90;;;;;;8391361;28;19924;-68
2023/01/04 23:56:54;;;;;;;;;;;11.40;99.90;;;;;;8377926;28;19925;-69
